createdAt,value
2017-12-23T00:00:36.134Z,24.63
2017-12-23T00:03:02.416Z,30.67
2017-12-23T00:05:28.692Z,31.63
2017-12-23T00:07:54.957Z,32.90
2017-12-23T00:10:21.203Z,24.10
2017-12-23T00:12:47.471Z,29.33
2017-12-23T00:15:13.744Z,29.50
2017-12-23T00:17:39.982Z,17.93
2017-12-23T00:20:07.119Z,30.87
2017-12-23T00:22:33.425Z,23.83
2017-12-23T00:24:59.807Z,30.10
2017-12-23T00:27:26.087Z,33.67
2017-12-23T00:29:52.301Z,24.50
2017-12-23T00:32:18.639Z,36.53
2017-12-23T00:34:44.905Z,29.50
2017-12-23T00:37:11.224Z,27.63
2017-12-23T00:39:38.111Z,31.83
2017-12-23T00:42:04.355Z,29.07
2017-12-23T00:44:30.658Z,29.87
2017-12-23T00:46:56.941Z,24.40
2017-12-23T00:49:23.232Z,27.17
2017-12-23T00:51:49.534Z,29.40
2017-12-23T00:54:15.769Z,26.70
2017-12-23T00:56:42.808Z,27.70
2017-12-23T00:59:09.062Z,28.03
2017-12-23T01:01:35.346Z,32.83
2017-12-23T01:04:01.626Z,31.80
2017-12-23T01:06:27.863Z,32.87
2017-12-23T01:08:54.123Z,28.43
2017-12-23T01:11:28.131Z,34.20
2017-12-23T01:13:54.509Z,26.73
2017-12-23T01:16:20.763Z,31.47
2017-12-23T01:18:47.072Z,30.90
2017-12-23T01:21:13.344Z,32.83
2017-12-23T01:23:39.578Z,31.60
2017-12-23T01:26:05.836Z,27.00
2017-12-23T01:28:32.058Z,27.40
2017-12-23T01:30:58.282Z,29.30
2017-12-23T01:33:25.316Z,26.43
2017-12-23T01:35:51.661Z,30.30
2017-12-23T01:38:17.907Z,35.60
2017-12-23T01:40:44.183Z,30.23
2017-12-23T01:43:13.349Z,35.43
2017-12-23T01:45:40.346Z,27.43
2017-12-23T01:48:06.587Z,27.00
2017-12-23T01:50:32.812Z,26.53
2017-12-23T01:52:59.055Z,28.37
2017-12-23T01:55:25.319Z,23.57
2017-12-23T01:57:51.599Z,21.27
2017-12-23T02:00:17.912Z,29.73
2017-12-23T02:02:44.219Z,28.00
2017-12-23T02:05:10.468Z,23.27
2017-12-23T02:07:36.860Z,22.57
2017-12-23T02:10:03.861Z,29.33
2017-12-23T02:12:30.138Z,26.63
2017-12-23T02:14:56.421Z,36.17
2017-12-23T02:17:22.682Z,29.90
2017-12-23T02:19:48.954Z,35.53
2017-12-23T02:22:15.268Z,27.93
2017-12-23T02:24:41.607Z,28.73
2017-12-23T02:27:07.896Z,27.90
2017-12-23T02:29:34.174Z,33.37
2017-12-23T02:32:00.529Z,23.73
2017-12-23T02:34:26.792Z,23.40
2017-12-23T02:36:59.949Z,33.73
2017-12-23T02:39:26.997Z,31.40
2017-12-23T02:41:53.254Z,28.23
2017-12-23T02:44:19.504Z,29.10
2017-12-23T02:46:45.756Z,37.00
2017-12-23T02:49:12.013Z,32.27
2017-12-23T02:51:39.099Z,38.13
2017-12-23T02:54:06.108Z,34.03
2017-12-23T02:56:32.418Z,32.50
2017-12-23T02:58:58.651Z,32.70
2017-12-23T03:01:24.962Z,28.73
2017-12-23T03:03:51.266Z,23.40
2017-12-23T03:06:18.265Z,35.50
2017-12-23T03:08:44.545Z,28.27
2017-12-23T03:11:11.560Z,32.60
2017-12-23T03:13:37.811Z,31.83
2017-12-23T03:16:04.784Z,30.83
2017-12-23T03:18:31.065Z,32.70
2017-12-23T03:20:57.369Z,32.80
2017-12-23T03:23:23.630Z,31.87
2017-12-23T03:25:49.866Z,34.27
2017-12-23T03:28:16.843Z,26.03
2017-12-23T03:30:43.131Z,36.13
2017-12-23T03:33:10.124Z,30.27
2017-12-23T03:35:36.386Z,36.53
2017-12-23T03:38:02.634Z,31.60
2017-12-23T03:40:28.904Z,29.13
2017-12-23T03:42:55.204Z,32.90
2017-12-23T03:45:22.187Z,31.43
2017-12-23T03:47:48.566Z,29.83
2017-12-23T03:50:14.830Z,24.80
2017-12-23T03:52:41.111Z,30.90
2017-12-23T03:55:07.366Z,27.10
2017-12-23T03:57:34.435Z,28.47
2017-12-23T04:00:00.752Z,27.43
2017-12-23T04:02:27.793Z,32.90
2017-12-23T04:04:54.922Z,24.57
2017-12-23T04:07:21.295Z,34.90
2017-12-23T04:09:48.459Z,27.30
2017-12-23T04:12:14.857Z,27.93
2017-12-23T04:14:42.030Z,32.23
2017-12-23T04:17:08.631Z,30.77
2017-12-23T04:19:35.671Z,24.87
2017-12-23T04:22:01.977Z,30.50
2017-12-23T04:24:28.282Z,27.07
2017-12-23T04:26:54.572Z,24.43
2017-12-23T04:29:21.810Z,26.60
2017-12-23T04:31:49.166Z,23.40
2017-12-23T04:34:15.565Z,32.73
2017-12-23T04:36:42.145Z,31.00
2017-12-23T04:39:08.534Z,25.60
2017-12-23T04:41:35.560Z,33.37
2017-12-23T04:44:01.780Z,20.20
2017-12-23T04:46:28.078Z,24.47
2017-12-23T04:48:55.045Z,28.50
2017-12-23T04:51:21.309Z,32.07
2017-12-23T04:53:47.542Z,32.23
2017-12-23T04:56:13.769Z,27.33
2017-12-23T04:58:40.025Z,31.57
2017-12-23T05:01:06.366Z,26.93
2017-12-23T05:03:33.535Z,33.67
2017-12-23T05:05:59.806Z,31.53
2017-12-23T05:08:26.063Z,26.53
2017-12-23T05:10:53.139Z,29.80
2017-12-23T05:13:19.370Z,26.03
2017-12-23T05:15:45.645Z,27.57
2017-12-23T05:18:11.910Z,32.17
2017-12-23T05:20:38.199Z,30.57
2017-12-23T05:23:05.201Z,30.43
2017-12-23T05:25:31.428Z,25.60
2017-12-23T05:27:57.789Z,27.50
2017-12-23T05:30:24.135Z,27.27
2017-12-23T05:32:52.235Z,30.77
2017-12-23T05:35:18.557Z,28.53
2017-12-23T05:37:45.516Z,32.07
2017-12-23T05:40:11.788Z,29.77
2017-12-23T05:42:38.071Z,27.40
2017-12-23T05:45:04.400Z,25.37
2017-12-23T05:47:30.696Z,30.70
2017-12-23T05:49:57.700Z,27.83
2017-12-23T05:52:24.017Z,27.87
2017-12-23T05:54:51.932Z,33.83
2017-12-23T05:57:18.286Z,32.33
2017-12-23T05:59:46.334Z,29.93
2017-12-23T06:02:12.812Z,28.03
2017-12-23T06:04:39.138Z,29.57
2017-12-23T06:07:06.150Z,33.03
2017-12-23T06:09:33.142Z,31.07
2017-12-23T06:11:59.501Z,39.77
2017-12-23T06:14:25.775Z,30.63
2017-12-23T06:16:52.187Z,38.83
2017-12-23T06:19:19.274Z,37.40
2017-12-23T06:21:45.560Z,34.73
2017-12-23T06:24:13.734Z,39.47
2017-12-23T06:26:40.163Z,37.60
2017-12-23T06:29:06.421Z,40.73
2017-12-23T06:31:33.451Z,40.60
2017-12-23T06:33:59.931Z,38.10
2017-12-23T06:36:26.254Z,47.90
2017-12-23T06:38:52.497Z,46.37
2017-12-23T06:41:18.794Z,47.90
2017-12-23T06:43:45.034Z,52.90
2017-12-23T06:46:11.294Z,46.80
2017-12-23T06:48:37.738Z,46.67
2017-12-23T06:51:04.051Z,48.07
2017-12-23T06:53:30.352Z,45.10
2017-12-23T06:55:56.596Z,49.50
2017-12-23T06:58:22.819Z,52.13
2017-12-23T07:00:49.190Z,53.40
2017-12-23T07:03:15.450Z,54.10
2017-12-23T07:05:42.470Z,54.07
2017-12-23T07:08:09.488Z,55.93
2017-12-23T07:10:35.776Z,55.83
2017-12-23T07:13:02.047Z,56.33
2017-12-23T07:15:28.283Z,55.17
2017-12-23T07:17:54.793Z,59.80
2017-12-23T07:20:21.986Z,57.60
2017-12-23T07:22:48.456Z,53.80
2017-12-23T07:25:15.667Z,56.67
2017-12-23T07:27:41.992Z,58.93
2017-12-23T07:30:08.274Z,56.53
2017-12-23T07:32:34.617Z,56.10
2017-12-23T07:35:00.965Z,61.60
2017-12-23T07:37:27.906Z,53.83
2017-12-23T07:39:54.189Z,59.80
2017-12-23T07:42:21.826Z,51.17
2017-12-23T07:44:49.767Z,48.13
2017-12-23T07:47:17.917Z,50.30
2017-12-23T07:49:45.099Z,45.50
2017-12-23T07:52:11.368Z,51.23
2017-12-23T07:54:38.462Z,45.83
2017-12-23T07:57:05.257Z,49.20
2017-12-23T07:59:32.498Z,46.07
2017-12-23T08:01:59.396Z,41.00
2017-12-23T08:04:26.410Z,43.93
2017-12-23T08:06:53.421Z,45.50
2017-12-23T08:09:19.705Z,42.10
2017-12-23T08:11:45.945Z,46.57
2017-12-23T08:14:12.934Z,36.93
2017-12-23T08:16:39.973Z,40.80
2017-12-23T08:19:08.685Z,40.33
2017-12-23T08:21:38.505Z,44.50
2017-12-23T08:24:05.040Z,40.67
2017-12-23T08:26:32.236Z,40.60
2017-12-23T08:28:58.911Z,38.30
2017-12-23T08:31:25.248Z,33.50
2017-12-23T08:33:52.290Z,42.57
2017-12-23T08:36:18.746Z,32.03
2017-12-23T08:38:45.085Z,31.10
2017-12-23T08:41:11.387Z,41.80
2017-12-23T08:43:37.787Z,37.60
2017-12-23T08:46:04.031Z,34.20
2017-12-23T08:48:31.016Z,34.03
2017-12-23T08:50:59.607Z,37.13
2017-12-23T08:53:25.943Z,39.30
2017-12-23T08:55:52.229Z,34.20
2017-12-23T08:58:19.205Z,41.43
2017-12-23T09:00:45.460Z,34.17
2017-12-23T09:03:11.724Z,34.17
2017-12-23T09:05:38.786Z,42.57
2017-12-23T09:08:05.816Z,34.90
2017-12-23T09:10:32.071Z,37.50
2017-12-23T09:12:58.429Z,30.50
2017-12-23T09:15:24.656Z,36.77
2017-12-23T09:17:50.927Z,31.80
2017-12-23T09:20:17.176Z,34.30
2017-12-23T09:22:43.523Z,34.07
2017-12-23T09:25:10.026Z,35.30
2017-12-23T09:27:37.033Z,40.40
2017-12-23T09:30:03.824Z,34.60
2017-12-23T09:32:30.259Z,36.43
2017-12-23T09:34:56.612Z,38.50
2017-12-23T09:37:22.944Z,33.73
2017-12-23T09:39:49.274Z,34.50
2017-12-23T09:42:16.604Z,35.60
2017-12-23T09:44:42.936Z,36.17
2017-12-23T09:47:14.916Z,29.67
2017-12-23T09:49:41.271Z,39.30
2017-12-23T09:52:07.605Z,34.77
2017-12-23T09:54:33.914Z,33.50
2017-12-23T09:57:00.222Z,34.67
2017-12-23T09:59:26.502Z,29.73
2017-12-23T10:01:52.806Z,30.67
2017-12-23T10:04:19.134Z,32.90
2017-12-23T10:06:45.465Z,26.77
2017-12-23T10:09:11.854Z,31.67
2017-12-23T10:11:38.885Z,34.10
2017-12-23T10:14:05.180Z,32.10
2017-12-23T10:16:31.514Z,27.37
2017-12-23T10:18:57.817Z,24.37
2017-12-23T10:21:24.252Z,28.77
2017-12-23T10:23:50.526Z,19.03
2017-12-23T10:26:16.811Z,21.73
2017-12-23T10:28:43.137Z,23.07
2017-12-23T10:31:09.583Z,17.90
2017-12-23T10:33:36.028Z,19.37
2017-12-23T10:36:02.396Z,21.20
2017-12-23T10:38:28.676Z,18.03
2017-12-23T10:40:54.986Z,18.53
2017-12-23T10:43:22.979Z,14.70
2017-12-23T10:45:49.327Z,14.67
2017-12-23T10:48:15.635Z,14.63
2017-12-23T10:50:42.932Z,15.80
2017-12-23T10:53:09.944Z,13.10
2017-12-23T10:55:40.062Z,11.50
2017-12-23T10:58:06.438Z,11.33
2017-12-23T11:00:35.476Z,15.73
2017-12-23T11:03:02.976Z,12.07
2017-12-23T11:05:29.219Z,18.13
2017-12-23T11:07:55.499Z,12.37
2017-12-23T11:10:21.785Z,8.17
2017-12-23T11:12:48.859Z,12.50
2017-12-23T11:15:15.162Z,16.93
2017-12-23T11:17:41.510Z,9.63
2017-12-23T11:20:08.527Z,9.23
2017-12-23T11:22:34.822Z,10.07
2017-12-23T11:25:01.090Z,11.90
2017-12-23T11:27:27.371Z,5.90
2017-12-23T11:29:53.686Z,7.70
2017-12-23T11:32:19.984Z,8.17
2017-12-23T11:34:46.270Z,7.53
2017-12-23T11:37:13.320Z,10.00
2017-12-23T11:39:39.602Z,6.53
2017-12-23T11:42:06.656Z,4.30
2017-12-23T11:44:32.934Z,5.57
2017-12-23T11:46:59.200Z,5.70
2017-12-23T11:49:25.511Z,5.17
2017-12-23T11:51:51.766Z,7.20
2017-12-23T11:54:18.839Z,5.47
2017-12-23T11:56:45.092Z,5.93
2017-12-23T11:59:12.866Z,5.03
2017-12-23T12:01:40.059Z,5.40
2017-12-23T12:04:07.151Z,6.53
2017-12-23T12:06:33.545Z,4.93
2017-12-23T12:08:59.874Z,12.27
2017-12-23T12:11:26.223Z,4.50
2017-12-23T12:13:52.485Z,7.93
2017-12-23T12:16:18.816Z,4.63
2017-12-23T12:18:45.256Z,6.87
2017-12-23T12:21:11.558Z,7.20
2017-12-23T12:23:37.881Z,4.30
2017-12-23T12:26:04.147Z,7.33
2017-12-23T12:28:30.459Z,8.53
2017-12-23T12:30:56.767Z,6.80
2017-12-23T12:33:23.131Z,9.27
2017-12-23T12:35:50.257Z,12.10
2017-12-23T12:38:16.568Z,8.13
2017-12-23T12:40:42.997Z,9.73
2017-12-23T12:43:09.469Z,9.30
2017-12-23T12:45:36.525Z,6.83
2017-12-23T12:48:02.856Z,8.37
2017-12-23T12:53:20.939Z,6.67
2017-12-23T12:55:47.259Z,9.83
2017-12-23T12:58:14.292Z,8.90
2017-12-23T13:00:40.707Z,9.00
2017-12-23T13:03:07.039Z,11.37
2017-12-23T13:05:34.517Z,8.33
2017-12-23T13:08:02.012Z,12.20
2017-12-23T13:10:28.397Z,10.63
2017-12-23T13:12:54.741Z,10.33
2017-12-23T13:15:21.865Z,11.40
2017-12-23T13:17:48.154Z,20.10
2017-12-23T13:20:14.463Z,8.07
2017-12-23T13:22:41.501Z,13.60
2017-12-23T13:25:08.547Z,12.40
2017-12-23T13:27:34.826Z,12.60
2017-12-23T13:30:01.184Z,12.37
2017-12-23T13:32:27.460Z,7.27
2017-12-23T13:34:53.712Z,15.50
2017-12-23T13:37:20.025Z,17.70
2017-12-23T13:39:46.327Z,14.63
2017-12-23T13:42:13.469Z,11.87
2017-12-23T13:44:40.540Z,17.60
2017-12-23T13:47:06.901Z,15.33
2017-12-23T13:49:33.131Z,15.70
2017-12-23T13:51:59.431Z,15.90
2017-12-23T13:54:25.774Z,13.67
2017-12-23T13:56:52.087Z,14.63
2017-12-23T13:59:18.386Z,15.40
2017-12-23T14:01:45.402Z,20.97
2017-12-23T14:04:11.740Z,12.73
2017-12-23T14:06:38.096Z,15.00
2017-12-23T14:09:05.162Z,16.17
2017-12-23T14:11:32.218Z,15.20
2017-12-23T14:13:58.481Z,18.53
2017-12-23T14:16:24.826Z,14.33
2017-12-23T14:18:51.858Z,19.43
2017-12-23T14:21:18.474Z,19.93
2017-12-23T14:23:44.743Z,19.63
2017-12-23T14:26:11.133Z,18.40
2017-12-23T14:28:37.497Z,19.47
2017-12-23T14:31:03.761Z,20.27
2017-12-23T14:33:30.751Z,24.40
2017-12-23T14:35:57.015Z,20.93
2017-12-23T14:38:23.306Z,29.77
2017-12-23T14:40:49.527Z,24.17
2017-12-23T14:43:15.908Z,21.60
2017-12-23T14:45:42.949Z,21.83
2017-12-23T14:48:16.240Z,22.10
2017-12-23T14:50:42.527Z,21.20
2017-12-23T14:53:08.808Z,21.60
2017-12-23T14:55:35.876Z,33.27
2017-12-23T14:58:02.896Z,23.50
2017-12-23T15:00:30.104Z,25.00
2017-12-23T15:02:56.464Z,25.93
2017-12-23T15:05:22.716Z,34.43
2017-12-23T15:07:49.748Z,29.87
2017-12-23T15:10:16.006Z,29.53
2017-12-23T15:12:43.815Z,32.20
2017-12-23T15:15:10.143Z,33.53
2017-12-23T15:17:36.421Z,33.17
2017-12-23T15:20:03.472Z,41.20
2017-12-23T15:22:30.571Z,33.97
2017-12-23T15:24:56.840Z,38.30
2017-12-23T15:27:23.868Z,48.10
2017-12-23T15:29:50.178Z,42.00
2017-12-23T15:32:16.455Z,39.90
2017-12-23T15:34:43.499Z,37.93
2017-12-23T15:37:10.560Z,45.80
2017-12-23T15:39:36.973Z,43.63
2017-12-23T15:42:04.020Z,40.03
2017-12-23T15:44:31.120Z,48.73
2017-12-23T15:46:58.284Z,43.03
2017-12-23T15:49:24.535Z,48.07
2017-12-23T15:51:50.810Z,42.00
2017-12-23T15:54:17.085Z,57.37
2017-12-23T15:56:43.422Z,54.23
2017-12-23T15:59:10.485Z,48.93
2017-12-23T16:01:37.600Z,56.77
2017-12-23T16:04:03.980Z,61.90
2017-12-23T16:06:30.255Z,54.40
2017-12-23T16:08:56.568Z,50.40
2017-12-23T16:11:23.454Z,64.77
2017-12-23T16:13:50.635Z,60.30
2017-12-23T16:16:17.021Z,53.57
2017-12-23T16:18:43.321Z,60.57
2017-12-23T16:21:09.626Z,63.03
2017-12-23T16:23:35.935Z,63.90
2017-12-23T16:26:02.513Z,72.37
2017-12-23T16:28:28.776Z,43.17
2017-12-23T16:30:55.150Z,67.90
2017-12-23T16:33:21.454Z,71.00
2017-12-23T16:35:48.502Z,67.83
2017-12-23T16:38:15.520Z,66.07
2017-12-23T16:40:41.834Z,65.83
2017-12-23T16:43:08.092Z,59.67
2017-12-23T16:45:34.395Z,63.90
2017-12-23T16:48:00.620Z,70.60
2017-12-23T16:50:27.777Z,64.70
2017-12-23T16:52:54.054Z,58.80
2017-12-23T16:55:20.360Z,65.63
2017-12-23T16:57:46.614Z,67.83
2017-12-23T17:00:13.686Z,63.37
2017-12-23T17:02:40.013Z,64.93
2017-12-23T17:05:06.355Z,79.33
2017-12-23T17:07:32.616Z,73.13
2017-12-23T17:09:58.903Z,75.50
2017-12-23T17:12:25.208Z,76.50
2017-12-23T17:14:52.208Z,62.27
2017-12-23T17:17:18.523Z,74.40
2017-12-23T17:19:44.754Z,77.43
2017-12-23T17:22:11.071Z,77.87
2017-12-23T17:24:37.546Z,77.33
2017-12-23T17:27:04.551Z,76.40
2017-12-23T17:29:51.517Z,87.70
2017-12-23T17:32:18.781Z,85.83
2017-12-23T17:34:45.111Z,83.10
2017-12-23T17:37:11.368Z,89.83
2017-12-23T17:39:37.647Z,81.97
2017-12-23T17:42:03.977Z,89.53
2017-12-23T17:44:30.264Z,87.43
2017-12-23T17:46:56.533Z,80.80
2017-12-23T17:49:22.773Z,74.97
2017-12-23T17:51:49.198Z,86.20
2017-12-23T17:54:15.463Z,77.23
2017-12-23T17:56:43.575Z,87.43
2017-12-23T17:59:09.865Z,76.13
2017-12-23T18:01:37.388Z,81.33
2017-12-23T18:04:03.672Z,82.10
2017-12-23T18:06:29.955Z,86.23
2017-12-23T18:08:56.230Z,76.30
2017-12-23T18:11:22.477Z,77.87
2017-12-23T18:13:48.806Z,76.27
2017-12-23T18:16:15.043Z,80.43
2017-12-23T18:18:41.299Z,81.40
2017-12-23T18:21:08.314Z,71.77
2017-12-23T18:23:34.611Z,74.00
2017-12-23T18:26:00.881Z,73.03
2017-12-23T18:28:27.876Z,71.33
2017-12-23T18:30:54.202Z,70.93
2017-12-23T18:33:20.488Z,78.70
2017-12-23T18:35:46.789Z,66.63
2017-12-23T18:38:13.241Z,59.63
2017-12-23T18:40:39.482Z,62.30
2017-12-23T18:43:05.787Z,64.90
2017-12-23T18:45:32.041Z,61.43
2017-12-23T18:47:58.295Z,60.70
2017-12-23T18:50:25.288Z,52.80
2017-12-23T18:52:51.560Z,62.30
2017-12-23T18:55:18.594Z,56.70
2017-12-23T18:57:44.851Z,57.00
2017-12-23T19:00:11.894Z,58.27
2017-12-23T19:02:38.900Z,56.30
2017-12-23T19:05:05.174Z,60.13
2017-12-23T19:07:31.458Z,49.37
2017-12-23T19:09:57.731Z,53.80
2017-12-23T19:12:24.739Z,56.33
2017-12-23T19:14:50.973Z,52.20
2017-12-23T19:17:17.260Z,50.10
2017-12-23T19:19:43.633Z,62.70
2017-12-23T19:22:09.913Z,52.73
2017-12-23T19:24:36.163Z,52.90
2017-12-23T19:27:02.440Z,48.10
2017-12-23T19:29:29.439Z,43.67
2017-12-23T19:31:55.724Z,42.27
2017-12-23T19:34:22.052Z,49.37
2017-12-23T19:36:49.038Z,46.37
2017-12-23T19:39:15.313Z,46.10
2017-12-23T19:41:42.320Z,43.30
2017-12-23T19:44:08.660Z,46.60
2017-12-23T19:46:34.991Z,47.37
2017-12-23T19:49:01.319Z,43.47
2017-12-23T19:51:27.636Z,49.27
2017-12-23T19:53:53.966Z,42.37
2017-12-23T19:56:20.231Z,42.03
2017-12-23T19:58:46.492Z,42.27
2017-12-23T20:01:13.468Z,47.00
2017-12-23T20:03:39.785Z,45.47
2017-12-23T20:06:06.038Z,75.03
2017-12-23T20:08:33.067Z,39.20
2017-12-23T20:10:59.335Z,40.23
2017-12-23T20:13:25.573Z,39.43
2017-12-23T20:15:52.620Z,37.00
2017-12-23T20:18:19.602Z,40.77
2017-12-23T20:20:45.916Z,40.63
2017-12-23T20:23:12.923Z,38.87
2017-12-23T20:25:45.112Z,33.93
2017-12-23T20:28:12.147Z,35.37
2017-12-23T20:30:38.372Z,33.60
2017-12-23T20:33:04.669Z,30.27
2017-12-23T20:35:32.475Z,31.50
2017-12-23T20:37:58.803Z,35.80
2017-12-23T20:40:25.107Z,33.23
2017-12-23T20:42:51.366Z,31.70
2017-12-23T20:45:17.756Z,36.17
2017-12-23T20:47:44.031Z,35.00
2017-12-23T20:50:11.137Z,34.53
2017-12-23T20:52:37.474Z,36.07
2017-12-23T20:55:03.835Z,34.83
2017-12-23T20:57:30.914Z,32.47
2017-12-23T20:59:57.233Z,36.40
2017-12-23T21:02:23.542Z,37.33
2017-12-23T21:04:50.587Z,34.87
2017-12-23T21:07:17.662Z,32.60
2017-12-23T21:09:43.903Z,33.60
2017-12-23T21:12:10.186Z,34.90
2017-12-23T21:14:37.209Z,32.40
2017-12-23T21:17:03.510Z,31.10
2017-12-23T21:19:29.827Z,32.93
2017-12-23T21:21:56.138Z,36.40
2017-12-23T21:24:23.189Z,44.57
2017-12-23T21:26:50.255Z,33.10
2017-12-23T21:29:16.576Z,34.87
2017-12-23T21:31:43.602Z,32.83
2017-12-23T21:34:09.875Z,29.23
2017-12-23T21:36:36.243Z,32.67
2017-12-23T21:39:02.587Z,30.57
2017-12-23T21:41:29.582Z,32.40
2017-12-23T21:43:55.890Z,28.40
2017-12-23T21:46:22.182Z,35.37
2017-12-23T21:48:48.588Z,27.80
2017-12-23T21:51:14.856Z,38.40
2017-12-23T21:53:41.867Z,34.50
2017-12-23T21:56:08.147Z,38.73
2017-12-23T21:58:34.400Z,31.53
2017-12-23T22:01:00.803Z,38.40
2017-12-23T22:03:27.067Z,38.53
2017-12-23T22:05:53.352Z,32.67
2017-12-23T22:08:21.007Z,34.70
2017-12-23T22:10:48.058Z,38.53
2017-12-23T22:13:15.073Z,30.40
2017-12-23T22:15:41.350Z,31.33
2017-12-23T22:18:07.615Z,32.90
2017-12-23T22:20:33.866Z,33.17
2017-12-23T22:23:00.149Z,31.30
2017-12-23T22:25:26.371Z,29.97
2017-12-23T22:27:52.628Z,33.80
2017-12-23T22:30:18.911Z,37.90
2017-12-23T22:32:45.976Z,32.37
2017-12-23T22:35:12.281Z,41.00
2017-12-23T22:37:39.360Z,35.60
2017-12-23T22:40:05.678Z,37.43
2017-12-23T22:42:33.784Z,31.43
2017-12-23T22:45:00.046Z,38.43
2017-12-23T22:47:26.332Z,40.43
2017-12-23T22:49:52.566Z,39.83
2017-12-23T22:52:18.851Z,38.10
2017-12-23T22:54:45.854Z,45.13
2017-12-23T22:57:12.621Z,40.70
2017-12-23T22:59:38.919Z,42.27
2017-12-23T23:02:05.207Z,36.13
2017-12-23T23:04:31.592Z,41.97
2017-12-23T23:06:57.845Z,43.20
2017-12-23T23:09:24.198Z,42.47
2017-12-23T23:11:50.463Z,45.73
2017-12-23T23:14:16.758Z,47.97
2017-12-23T23:16:43.005Z,40.40
2017-12-23T23:19:09.259Z,42.33
2017-12-23T23:21:35.611Z,39.53
2017-12-23T23:24:01.859Z,46.83
2017-12-23T23:26:28.139Z,42.33
2017-12-23T23:28:54.413Z,41.53
2017-12-23T23:31:20.713Z,48.60
2017-12-23T23:33:46.964Z,41.87
2017-12-23T23:36:13.930Z,46.30
2017-12-23T23:38:40.214Z,50.27
2017-12-23T23:41:06.480Z,51.17
2017-12-23T23:43:33.503Z,37.37
2017-12-23T23:45:59.854Z,43.13
2017-12-23T23:48:26.839Z,50.03
2017-12-23T23:50:53.078Z,51.17
2017-12-23T23:53:19.363Z,46.70
2017-12-23T23:55:45.614Z,51.40
2017-12-23T23:58:11.919Z,44.90
